Latest Coastal Weather Observations for Carnarvon

IDW60701

Issued at 9:35 am WST Friday 28 November 2014 (issued every 10 minutes, with the page automatically refreshed every 10 minutes)

About coastal observations | Map of coastal stations | Coastal observations for WA | Marine services | Other Formats
Station Details ID: 006011 Name: CARNARVON AIRPORT Lat: -24.89 Lon: 113.67 Height: 4.0 m
Data from the previous 72 hours. | See also: Recent months at Carnarvon
Date/Time
WST
Temp

°C
Wind Pressure Rain
since 9am
mm
Weather Cloud Vis
km
Sea
Height
m
Swell
Dir
 
Speed
knots
Gust
knots
hPa Trend Height
m
Period
s
Dir
28/09:30am 25.2 SSW 14 16 1013.4 - 0.0 - Partly cloudy - - - - -
28/09:00am 24.9 SSW 13 16 1013.4 - 0.0 - Partly cloudy - - - - -
28/08:30am 24.7 SSW 13 16 1013.5 - 0.0 - Partly cloudy - - - - -
28/08:00am 23.8 SSW 12 15 1013.3 - 0.0 - Partly cloudy - - - - -
28/07:30am 24.2 SSW 11 15 1013.0 - 0.0 - Cloudy - - - - -
28/07:00am 23.7 SSW 10 12 1013.0 - 0.0 - Cloudy - - - - -
28/06:30am 23.0 SSW 11 15 1012.6 - 0.0 - Partly cloudy - - - - -
28/06:00am 22.7 SW 7 9 1012.3 - 0.0 - Cloudy 10 - - - -
28/05:30am 22.7 S 8 12 1012.1 - 0.0 - Cloudy - - - - -
28/05:00am 22.6 SSW 11 14 1011.9 - 0.0 - Cloudy 10 - - - -
28/04:30am 22.6 SW 9 11 1011.7 - 0.0 - Partly cloudy 10 - - - -
28/04:00am 22.5 S 11 14 1011.3 - 0.0 - Partly cloudy 10 - - - -
28/03:30am 22.7 SW 9 12 1011.3 - 0.0 - Partly cloudy 10 - - - -
28/03:00am 22.8 SW 11 13 1011.2 - 0.0 - Mostly cloudy 10 - - - -
28/02:30am 22.5 SSW 12 16 1011.0 - 0.0 - Partly cloudy 10 - - - -
28/02:00am 22.6 SSW 8 11 1011.1 - 0.0 - Partly cloudy 10 - - - -
28/01:30am 22.6 SW 10 15 1011.1 - 0.0 - Partly cloudy 10 - - - -
28/01:00am 22.5 SSW 10 12 1010.9 - 0.0 - Partly cloudy 10 - - - -
28/12:30am 22.5 WSW 9 12 1011.1 - 0.0 - Partly cloudy 10 - - - -
28/12:00am 22.5 WSW 11 14 1011.4 - 0.0 - Cloudy 10 - - - -
 
Date/Time
WST
Temp

°C
Wind Pressure Rain
since 9am
mm
Weather Cloud Vis
km
Sea
Height
m
Swell
Dir
 
Speed
knots
Gust
knots
hPa Trend Height
m
Period
s
Dir
27/11:30pm 22.5 WSW 10 16 1011.5 - 0.0 - Partly cloudy 10 - - - -
27/11:00pm 22.5 WSW 12 15 1011.5 - 0.0 - Partly cloudy 10 - - - -
27/10:58pm 22.6 WSW 12 15 1011.5 - 0.0 - Partly cloudy 10 - - - -
27/10:39pm 22.3 WSW 11 15 1011.5 - 0.0 - Partly cloudy 10 - - - -
27/10:30pm 22.3 WSW 10 14 1011.6 - 0.0 - Partly cloudy 10 - - - -
27/10:00pm 22.4 WSW 12 17 1011.4 - 0.0 - Partly cloudy 10 - - - -
27/09:30pm 22.4 W 10 15 1011.5 - 0.0 - Partly cloudy 10 - - - -
27/09:00pm 22.6 W 12 17 1011.4 - 0.0 - Partly cloudy 10 - - - -
27/08:30pm 22.6 WSW 12 17 1011.3 - 0.0 - Partly cloudy 10 - - - -
27/08:00pm 22.7 W 11 17 1011.2 - 0.0 - Partly cloudy 10 - - - -
27/07:30pm 22.8 W 10 13 1011.0 - 0.0 - Partly cloudy 10 - - - -
27/07:00pm 22.9 W 11 15 1010.6 - 0.0 - Partly cloudy 10 - - - -
27/06:30pm 23.5 WSW 9 13 1010.5 - 0.0 - Partly cloudy - - - - -
27/06:00pm 23.9 WSW 12 15 1010.2 - 0.0 - - - - - - -
27/05:30pm 24.7 W 13 17 1010.0 - 0.0 - - - - - - -
27/05:00pm 24.7 WSW 12 16 1009.7 - 0.0 - - - - - - -
27/04:30pm 25.4 WSW 15 20 1009.7 - 0.0 - - - - - - -
27/04:00pm 25.5 WSW 13 19 1009.7 - 0.0 - - - - - - -
27/03:30pm 25.7 W 14 19 1009.8 - 0.0 - - - - - - -
27/03:00pm 26.0 W 15 19 1009.8 R 0.0 Haze Mostly clear 28 - - - -
27/02:30pm 26.1 W 15 21 1009.9 - 0.0 - - 10 - - - -
27/02:00pm 26.1 W 15 20 1009.9 - 0.0 - - 10 - - - -
27/01:30pm 27.0 W 14 19 1010.0 - 0.0 - Mostly clear 10 - - - -
27/01:00pm 26.0 WNW 18 22 1010.1 - 0.0 - Mostly clear 10 - - - -
27/12:30pm 26.5 W 17 21 1010.2 - 0.0 - - 10 - - - -
27/12:00pm 25.9 W 16 22 1010.4 R 0.0 Fine Mostly clear 30 - - - -
27/11:30am 27.1 W 15 21 1010.4 - 0.0 - Mostly clear 10 - - - -
27/11:00am 26.2 W 15 19 1010.6 - 0.0 - Mostly clear 10 - - - -
27/10:30am 26.8 WNW 13 17 1010.7 - 0.0 - Mostly clear 10 - - - -
27/10:00am 26.6 WNW 15 19 1010.9 - 0.0 - Mostly clear 10 - - - -
27/09:30am 26.7 WNW 11 19 1010.7 - 0.0 - Mostly clear 10 - - - -
27/09:00am 25.7 NW 12 16 1010.7 R 0.0 Haze Mostly clear 24 - - - -
27/08:30am 25.9 NW 10 14 1010.4 - 0.0 - Mostly clear 10 - - - -
27/08:00am 24.8 WNW 8 12 1010.3 - 0.0 - Mostly clear 10 - - - -
27/07:30am 23.8 NNW 7 8 1010.2 - 0.0 - Mostly clear 10 - - - -
27/07:00am 22.3 N 7 9 1009.9 - 0.0 - - 10 - - - -
27/06:30am 21.0 N 6 8 1009.7 - 0.0 - - 10 - - - -
27/06:00am 19.0 N 6 8 1009.5 F 0.0 Haze Mostly clear 15 - - - -
27/05:30am 18.1 N 6 7 1009.3 - 0.0 - - 10 - - - -
27/05:00am 18.2 N 7 8 1009.2 - 0.0 - - 10 - - - -
27/04:30am 17.6 NNE 5 7 1009.4 - 0.0 - - 10 - - - -
27/04:00am 17.7 NNE 6 6 1009.4 - 0.0 - - 10 - - - -
27/03:30am 17.8 NNE 7 7 1009.4 - 0.0 - - 10 - - - -
27/03:00am 18.0 NNE 6 7 1009.5 - 0.0 - - 10 - - - -
27/02:30am 19.5 N 4 5 1009.6 - 0.0 - - 10 - - - -
27/02:00am 19.0 NE 6 6 1009.8 - 0.0 - - 10 - - - -
27/01:30am 19.7 NNE 3 4 1010.1 - 0.0 - - 10 - - - -
27/01:00am 19.7 NE 5 6 1010.4 - 0.0 - - 10 - - - -
27/12:30am 19.7 NE 7 8 1010.6 - 0.0 - - 10 - - - -
27/12:00am 20.8 ENE 4 5 1011.0 - 0.0 - Mostly clear 10 - - - -
 
Date/Time
WST
Temp

°C
Wind Pressure Rain
since 9am
mm
Weather Cloud Vis
km
Sea
Height
m
Swell
Dir
 
Speed
knots
Gust
knots
hPa Trend Height
m
Period
s
Dir
26/11:30pm 22.0 E 4 6 1011.3 - 0.0 - Partly cloudy 10 - - - -
26/11:00pm 22.5 S 3 5 1011.4 - 0.0 - Partly cloudy 10 - - - -
26/10:30pm 22.5 SW 5 8 1011.3 - 0.0 - Partly cloudy 10 - - - -
26/10:00pm 22.5 WSW 5 8 1011.0 - 0.0 - Partly cloudy 10 - - - -
26/09:30pm 22.4 W 6 7 1010.6 - 0.0 - Partly cloudy 10 - - - -
26/09:00pm 22.4 W 7 9 1010.3 - 0.0 - Mostly clear 10 - - - -
26/08:30pm 22.6 W 10 13 1009.8 - 0.0 - - 10 - - - -
26/08:00pm 22.7 W 11 16 1009.3 - 0.0 - - 10 - - - -
26/07:30pm 22.8 W 13 17 1008.7 - 0.0 - - 10 - - - -
26/07:00pm 22.9 W 14 18 1008.3 - 0.0 - - 10 - - - -
26/06:30pm 23.3 W 14 18 1007.9 - 0.0 - Partly cloudy 10 - - - -
26/06:00pm 24.0 W 14 18 1007.9 - 0.0 - Mostly clear - - - - -
26/05:30pm 24.6 W 15 20 1007.7 - 0.0 - Partly cloudy - - - - -
26/05:00pm 25.2 W 15 20 1007.6 - 0.0 - - - - - - -
26/04:30pm 25.5 W 15 19 1007.8 - 0.0 - Partly cloudy - - - - -
26/04:00pm 26.1 W 15 20 1007.9 - 0.0 - - - - - - -
26/03:30pm 26.1 W 15 21 1008.1 - 0.0 - - - - - - -
26/03:00pm 25.9 W 16 22 1008.2 R 0.0 Haze Mostly clear 20 - - - -
26/02:30pm 25.8 WNW 18 23 1008.4 - 0.0 - Mostly clear 10 - - - -
26/02:00pm 26.0 WNW 19 26 1008.5 - 0.0 - Mostly clear 10 - - - -
26/01:30pm 26.6 WNW 18 26 1008.6 - 0.0 - - 10 - - - -
26/01:00pm 26.5 WNW 20 25 1008.5 - 0.0 - - 10 - - - -
26/12:30pm 26.2 WNW 19 25 1008.7 - 0.0 - - 10 - - - -
26/12:00pm 26.4 WNW 19 25 1008.5 F 0.0 Haze Mostly clear 20 - - - -
26/11:30am 26.7 WNW 17 22 1008.6 - 0.0 - - 10 - - - -
26/11:00am 26.0 WNW 18 23 1008.8 - 0.0 - - 10 - - - -
26/10:30am 26.1 WNW 16 21 1008.9 - 0.0 - - 10 - - - -
26/10:00am 26.1 WNW 15 19 1009.1 - 0.0 - - 10 - - - -
26/09:30am 26.1 NW 14 18 1009.3 - 0.0 - - 10 - - - -
26/09:00am 25.8 NW 13 18 1009.4 R 0.0 Haze Mostly clear 18 - - - -
26/08:30am 25.2 NNW 13 16 1009.3 - 0.0 - Mostly clear 10 - - - -
26/08:00am 24.3 NNW 13 17 1009.3 - 0.0 - Mostly clear 10 - - - -
26/07:30am 22.7 NNW 13 18 1009.1 - 0.0 - Mostly clear 10 - - - -
26/07:00am 21.4 N 11 14 1008.7 - 0.0 - Mostly clear 10 - - - -
26/06:30am 20.5 N 9 12 1008.3 - 0.0 - Mostly clear 9 - - - -
26/06:00am 20.0 N 8 11 1008.3 F 0.0 Fine Mostly cloudy 9 - - - -
26/05:30am 19.6 N 8 9 1008.0 - 0.0 - - - - - - -
26/05:00am 19.8 N 7 9 1008.0 - 0.0 - - - - - - -
26/04:30am 19.6 N 6 8 1007.9 - 0.0 - - - - - - -
26/04:00am 19.3 N 6 8 1007.8 - 0.0 - - - - - - -
26/03:30am 19.3 N 6 7 1007.7 - 0.0 - - - - - - -
26/03:00am 19.3 N 5 7 1007.6 - 0.0 - - - - - - -
26/02:30am 19.4 N 5 5 1007.4 - 0.0 - - - - - - -
26/02:00am 19.6 NNW 4 5 1007.3 - 0.0 - - - - - - -
26/01:30am 19.8 NNW 6 7 1007.7 - 0.0 - - - - - - -
26/01:00am 19.6 N 5 6 1007.9 - 0.0 - - - - - - -
26/12:30am 19.7 N 5 5 1008.0 - 0.0 - - - - - - -
26/12:00am 20.6 W 3 4 1008.2 - 0.0 - - - - - - -
 
Date/Time
WST
Temp

°C
Wind Pressure Rain
since 9am
mm
Weather Cloud Vis
km
Sea
Height
m
Swell
Dir
 
Speed
knots
Gust
knots
hPa Trend Height
m
Period
s
Dir
25/11:30pm 21.7 WSW 3 4 1008.5 - 0.0 - - - - - - -
25/11:00pm 21.9 WSW 4 5 1008.8 - 0.0 - - - - - - -
25/10:30pm 21.9 SW 5 8 1008.7 - 0.0 - - - - - - -
25/10:00pm 22.2 SW 8 11 1008.4 - 0.0 - - - - - - -
25/09:30pm 22.4 WSW 11 13 1008.4 - 0.0 - - - - - - -
25/09:00pm 22.4 WSW 10 13 1008.5 - 0.0 - - - - - - -
25/08:30pm 22.5 WSW 10 13 1008.2 - 0.0 - - - - - - -
25/08:00pm 22.6 WSW 10 13 1008.4 - 0.0 - - - - - - -
25/07:30pm 22.7 W 9 13 1008.3 - 0.0 - - - - - - -
25/07:00pm 23.0 W 11 15 1008.2 - 0.0 - - 10 - - - -
25/06:30pm 23.5 W 12 16 1008.1 - 0.0 - - 10 - - - -
25/06:00pm 24.5 W 12 16 1007.9 - 0.0 - - 10 - - - -
25/05:30pm 24.3 W 13 16 1007.8 - 0.0 - - - - - - -
25/05:00pm 24.6 W 11 14 1007.8 - 0.0 - - - - - - -
25/04:30pm 25.6 W 14 18 1007.7 - 0.0 - - - - - - -
25/04:00pm 25.4 W 15 19 1007.8 - 0.0 - - - - - - -
25/03:30pm 26.7 W 15 19 1008.0 - 0.0 - - - - - - -
25/03:00pm 27.3 WNW 15 19 1008.1 R 0.0 Haze Mostly cloudy 25 - - - -
25/02:30pm 27.1 W 15 19 1008.4 - 0.0 - - 10 - - - -
25/02:00pm 28.1 W 14 18 1008.5 - 0.0 - - 10 - - - -
25/01:30pm 27.4 W 14 17 1008.6 - 0.0 - - 10 - - - -
25/01:00pm 28.5 W 14 17 1008.6 - 0.0 - - 10 - - - -
25/12:30pm 27.8 W 14 18 1008.7 - 0.0 - - 10 - - - -
25/12:00pm 27.4 WNW 14 19 1008.8 R 0.0 Haze Mostly clear 22 - - - -
25/11:30am 27.6 WNW 12 16 1008.9 - 0.0 - - 10 - - - -
25/11:00am 28.4 WNW 11 15 1009.1 - 0.0 - - 10 - - - -
25/10:30am 27.5 W 11 14 1009.4 - 0.0 - - 10 - - - -
25/10:00am 26.8 W 9 13 1009.4 - 0.0 - - 10 - - - -

Other Formats:

Comma delimited format used in spreadsheet applications
http://www.bom.gov.au/fwo/IDW60701/IDW60701.94300.axf

JavaScript Object Notation format (JSON) in row-major order
http://www.bom.gov.au/fwo/IDW60701/IDW60701.94300.json